sensor_id;sensor_type;location;lat;lon;timestamp;temperature;humidity
29431;DHT22;16404;49.902;10.074;2023-06-26T00:02:00;23.70;52.00
29431;DHT22;16404;49.902;10.074;2023-06-26T00:04:45;23.70;52.10
29431;DHT22;16404;49.902;10.074;2023-06-26T00:07:30;23.70;52.10
29431;DHT22;16404;49.902;10.074;2023-06-26T00:10:15;23.60;52.10
29431;DHT22;16404;49.902;10.074;2023-06-26T00:12:59;23.60;51.80
29431;DHT22;16404;49.902;10.074;2023-06-26T00:15:44;23.50;52.20
29431;DHT22;16404;49.902;10.074;2023-06-26T00:18:29;23.40;52.40
29431;DHT22;16404;49.902;10.074;2023-06-26T00:21:13;23.30;52.20
29431;DHT22;16404;49.902;10.074;2023-06-26T00:23:58;23.30;52.40
29431;DHT22;16404;49.902;10.074;2023-06-26T00:26:45;23.20;53.10
29431;DHT22;16404;49.902;10.074;2023-06-26T00:29:29;23.20;53.40
29431;DHT22;16404;49.902;10.074;2023-06-26T00:32:15;23.10;53.60
29431;DHT22;16404;49.902;10.074;2023-06-26T00:35:00;23.10;53.60
29431;DHT22;16404;49.902;10.074;2023-06-26T00:37:44;23.10;52.50
29431;DHT22;16404;49.902;10.074;2023-06-26T00:40:29;23.00;51.60
29431;DHT22;16404;49.902;10.074;2023-06-26T00:43:14;23.00;51.70
29431;DHT22;16404;49.902;10.074;2023-06-26T00:45:59;22.90;51.70
29431;DHT22;16404;49.902;10.074;2023-06-26T00:48:46;22.80;51.30
29431;DHT22;16404;49.902;10.074;2023-06-26T00:51:31;22.80;52.50
29431;DHT22;16404;49.902;10.074;2023-06-26T00:54:16;22.70;53.20
29431;DHT22;16404;49.902;10.074;2023-06-26T00:57:04;22.70;52.70
29431;DHT22;16404;49.902;10.074;2023-06-26T00:59:49;22.60;52.20
29431;DHT22;16404;49.902;10.074;2023-06-26T01:02:34;22.60;53.00
29431;DHT22;16404;49.902;10.074;2023-06-26T01:05:19;22.70;52.70
29431;DHT22;16404;49.902;10.074;2023-06-26T01:08:07;22.60;53.30
29431;DHT22;16404;49.902;10.074;2023-06-26T01:10:52;22.50;54.10
29431;DHT22;16404;49.902;10.074;2023-06-26T01:13:38;22.40;54.30
29431;DHT22;16404;49.902;10.074;2023-06-26T01:16:24;22.40;54.20
29431;DHT22;16404;49.902;10.074;2023-06-26T01:19:13;22.30;54.00
29431;DHT22;16404;49.902;10.074;2023-06-26T01:22:08;22.20;53.70
29431;DHT22;16404;49.902;10.074;2023-06-26T01:28:11;22.10;52.70
29431;DHT22;16404;49.902;10.074;2023-06-26T01:30:56;22.00;53.80
29431;DHT22;16404;49.902;10.074;2023-06-26T01:33:41;22.00;54.70
29431;DHT22;16404;49.902;10.074;2023-06-26T01:36:26;22.00;54.30
29431;DHT22;16404;49.902;10.074;2023-06-26T01:39:14;22.00;54.10
29431;DHT22;16404;49.902;10.074;2023-06-26T01:41:59;22.10;53.70
29431;DHT22;16404;49.902;10.074;2023-06-26T01:44:45;22.00;53.60
29431;DHT22;16404;49.902;10.074;2023-06-26T01:47:31;22.00;54.30
29431;DHT22;16404;49.902;10.074;2023-06-26T01:50:26;21.90;54.80
29431;DHT22;16404;49.902;10.074;2023-06-26T01:53:15;21.90;55.00
29431;DHT22;16404;49.902;10.074;2023-06-26T01:56:11;21.80;54.60
29431;DHT22;16404;49.902;10.074;2023-06-26T01:58:57;21.80;55.00
29431;DHT22;16404;49.902;10.074;2023-06-26T02:01:44;21.70;55.20
29431;DHT22;16404;49.902;10.074;2023-06-26T02:04:28;21.80;55.30
29431;DHT22;16404;49.902;10.074;2023-06-26T02:07:13;21.70;55.20
29431;DHT22;16404;49.902;10.074;2023-06-26T02:09:57;21.70;55.40
29431;DHT22;16404;49.902;10.074;2023-06-26T02:12:42;21.70;55.10
29431;DHT22;16404;49.902;10.074;2023-06-26T02:15:26;21.70;55.50
29431;DHT22;16404;49.902;10.074;2023-06-26T02:18:11;21.60;55.70
29431;DHT22;16404;49.902;10.074;2023-06-26T02:20:56;21.70;55.00
29431;DHT22;16404;49.902;10.074;2023-06-26T02:23:40;21.60;53.90
29431;DHT22;16404;49.902;10.074;2023-06-26T02:26:25;21.60;54.10
29431;DHT22;16404;49.902;10.074;2023-06-26T02:29:09;21.60;54.40
29431;DHT22;16404;49.902;10.074;2023-06-26T02:31:54;21.50;55.30
29431;DHT22;16404;49.902;10.074;2023-06-26T02:34:40;21.50;54.20
29431;DHT22;16404;49.902;10.074;2023-06-26T02:37:25;21.40;53.20
29431;DHT22;16404;49.902;10.074;2023-06-26T02:40:09;21.30;53.30
29431;DHT22;16404;49.902;10.074;2023-06-26T02:42:55;21.30;53.50
29431;DHT22;16404;49.902;10.074;2023-06-26T02:45:40;21.30;53.70
29431;DHT22;16404;49.902;10.074;2023-06-26T02:48:25;21.30;53.10
29431;DHT22;16404;49.902;10.074;2023-06-26T02:51:09;21.30;53.20
29431;DHT22;16404;49.902;10.074;2023-06-26T02:53:54;21.30;53.80
29431;DHT22;16404;49.902;10.074;2023-06-26T02:56:38;21.30;53.90
29431;DHT22;16404;49.902;10.074;2023-06-26T02:59:23;21.30;53.80
29431;DHT22;16404;49.902;10.074;2023-06-26T03:02:09;21.20;53.30
29431;DHT22;16404;49.902;10.074;2023-06-26T03:05:01;21.10;53.00
29431;DHT22;16404;49.902;10.074;2023-06-26T03:07:45;21.10;53.70
29431;DHT22;16404;49.902;10.074;2023-06-26T03:10:30;21.00;54.10
29431;DHT22;16404;49.902;10.074;2023-06-26T03:13:15;21.00;54.60
29431;DHT22;16404;49.902;10.074;2023-06-26T03:15:59;20.90;54.30
29431;DHT22;16404;49.902;10.074;2023-06-26T03:18:44;20.90;54.50
29431;DHT22;16404;49.902;10.074;2023-06-26T03:21:28;20.80;54.90
29431;DHT22;16404;49.902;10.074;2023-06-26T03:24:14;20.80;55.20
29431;DHT22;16404;49.902;10.074;2023-06-26T03:26:59;20.80;55.80
29431;DHT22;16404;49.902;10.074;2023-06-26T03:29:44;20.70;55.70
29431;DHT22;16404;49.902;10.074;2023-06-26T03:32:29;20.70;55.60
29431;DHT22;16404;49.902;10.074;2023-06-26T03:35:13;20.70;55.60
29431;DHT22;16404;49.902;10.074;2023-06-26T03:37:59;20.60;55.50
29431;DHT22;16404;49.902;10.074;2023-06-26T03:40:45;20.60;56.90
29431;DHT22;16404;49.902;10.074;2023-06-26T03:43:30;20.60;56.70
29431;DHT22;16404;49.902;10.074;2023-06-26T03:46:26;20.60;56.60
29431;DHT22;16404;49.902;10.074;2023-06-26T03:49:11;20.70;56.90
29431;DHT22;16404;49.902;10.074;2023-06-26T03:51:56;20.60;57.00
29431;DHT22;16404;49.902;10.074;2023-06-26T03:54:40;20.60;56.70
29431;DHT22;16404;49.902;10.074;2023-06-26T03:57:27;20.60;56.70
29431;DHT22;16404;49.902;10.074;2023-06-26T04:00:12;20.60;56.00
29431;DHT22;16404;49.902;10.074;2023-06-26T04:03:00;20.50;56.80
29431;DHT22;16404;49.902;10.074;2023-06-26T04:05:44;20.50;57.30
29431;DHT22;16404;49.902;10.074;2023-06-26T04:08:29;20.60;57.60
29431;DHT22;16404;49.902;10.074;2023-06-26T04:11:14;20.60;58.10
29431;DHT22;16404;49.902;10.074;2023-06-26T04:13:58;20.60;57.50
29431;DHT22;16404;49.902;10.074;2023-06-26T04:16:43;20.60;57.80
29431;DHT22;16404;49.902;10.074;2023-06-26T04:19:28;20.70;58.40
29431;DHT22;16404;49.902;10.074;2023-06-26T04:22:12;20.70;58.40
29431;DHT22;16404;49.902;10.074;2023-06-26T04:24:57;20.80;58.40
29431;DHT22;16404;49.902;10.074;2023-06-26T04:27:41;20.90;57.80
29431;DHT22;16404;49.902;10.074;2023-06-26T04:30:26;20.90;58.80
29431;DHT22;16404;49.902;10.074;2023-06-26T04:33:10;21.10;59.20
29431;DHT22;16404;49.902;10.074;2023-06-26T04:35:56;21.40;59.10
29431;DHT22;16404;49.902;10.074;2023-06-26T04:38:41;21.60;58.70
29431;DHT22;16404;49.902;10.074;2023-06-26T04:41:25;22.00;58.00
29431;DHT22;16404;49.902;10.074;2023-06-26T04:44:09;22.30;57.30
29431;DHT22;16404;49.902;10.074;2023-06-26T04:46:54;22.50;57.20
29431;DHT22;16404;49.902;10.074;2023-06-26T04:49:39;22.80;56.60
29431;DHT22;16404;49.902;10.074;2023-06-26T04:52:29;23.10;56.20
29431;DHT22;16404;49.902;10.074;2023-06-26T04:55:14;23.50;56.00
29431;DHT22;16404;49.902;10.074;2023-06-26T04:57:58;23.80;55.40
29431;DHT22;16404;49.902;10.074;2023-06-26T05:00:43;24.10;54.70
29431;DHT22;16404;49.902;10.074;2023-06-26T05:03:28;24.40;54.00
29431;DHT22;16404;49.902;10.074;2023-06-26T05:06:12;24.60;53.30
29431;DHT22;16404;49.902;10.074;2023-06-26T05:08:57;24.90;52.80
29431;DHT22;16404;49.902;10.074;2023-06-26T05:11:41;25.20;52.20
29431;DHT22;16404;49.902;10.074;2023-06-26T05:14:26;25.50;51.60
29431;DHT22;16404;49.902;10.074;2023-06-26T05:17:10;25.80;51.20
29431;DHT22;16404;49.902;10.074;2023-06-26T05:19:55;26.10;50.60
29431;DHT22;16404;49.902;10.074;2023-06-26T05:22:39;26.30;49.70
29431;DHT22;16404;49.902;10.074;2023-06-26T05:25:24;26.60;49.10
29431;DHT22;16404;49.902;10.074;2023-06-26T05:28:10;26.90;48.60
29431;DHT22;16404;49.902;10.074;2023-06-26T05:30:57;27.10;48.00
29431;DHT22;16404;49.902;10.074;2023-06-26T05:33:43;27.30;47.60
29431;DHT22;16404;49.902;10.074;2023-06-26T05:36:30;27.50;47.40
29431;DHT22;16404;49.902;10.074;2023-06-26T05:39:17;27.80;47.10
29431;DHT22;16404;49.902;10.074;2023-06-26T05:42:02;28.00;46.50
29431;DHT22;16404;49.902;10.074;2023-06-26T05:44:47;28.20;45.90
29431;DHT22;16404;49.902;10.074;2023-06-26T05:47:31;28.40;45.60
29431;DHT22;16404;49.902;10.074;2023-06-26T05:50:18;28.60;45.40
29431;DHT22;16404;49.902;10.074;2023-06-26T05:53:03;28.90;45.10
29431;DHT22;16404;49.902;10.074;2023-06-26T05:55:47;29.10;44.70
29431;DHT22;16404;49.902;10.074;2023-06-26T05:58:32;29.30;44.20
29431;DHT22;16404;49.902;10.074;2023-06-26T06:01:17;29.50;43.90
29431;DHT22;16404;49.902;10.074;2023-06-26T06:04:01;29.60;43.80
29431;DHT22;16404;49.902;10.074;2023-06-26T06:06:46;29.80;43.70
29431;DHT22;16404;49.902;10.074;2023-06-26T06:09:31;30.00;43.10
29431;DHT22;16404;49.902;10.074;2023-06-26T06:12:15;30.10;43.00
29431;DHT22;16404;49.902;10.074;2023-06-26T06:15:00;30.30;42.70
29431;DHT22;16404;49.902;10.074;2023-06-26T06:17:44;30.40;42.20
29431;DHT22;16404;49.902;10.074;2023-06-26T06:20:29;30.60;41.80
29431;DHT22;16404;49.902;10.074;2023-06-26T06:23:13;30.80;41.40
29431;DHT22;16404;49.902;10.074;2023-06-26T06:25:58;30.90;41.40
29431;DHT22;16404;49.902;10.074;2023-06-26T06:28:42;31.00;40.70
29431;DHT22;16404;49.902;10.074;2023-06-26T06:31:27;31.10;40.40
29431;DHT22;16404;49.902;10.074;2023-06-26T06:34:14;31.30;40.00
29431;DHT22;16404;49.902;10.074;2023-06-26T06:36:59;31.40;39.20
29431;DHT22;16404;49.902;10.074;2023-06-26T06:39:43;31.50;39.10
29431;DHT22;16404;49.902;10.074;2023-06-26T06:42:28;31.60;39.00
29431;DHT22;16404;49.902;10.074;2023-06-26T06:45:12;31.70;39.20
29431;DHT22;16404;49.902;10.074;2023-06-26T06:47:57;31.70;39.40
29431;DHT22;16404;49.902;10.074;2023-06-26T06:50:41;31.80;38.80
29431;DHT22;16404;49.902;10.074;2023-06-26T06:53:26;31.80;38.30
29431;DHT22;16404;49.902;10.074;2023-06-26T06:56:10;32.00;38.20
29431;DHT22;16404;49.902;10.074;2023-06-26T06:58:55;32.00;38.00
29431;DHT22;16404;49.902;10.074;2023-06-26T07:01:40;32.10;38.10
29431;DHT22;16404;49.902;10.074;2023-06-26T07:04:24;32.20;37.50
29431;DHT22;16404;49.902;10.074;2023-06-26T07:07:09;32.30;36.70
29431;DHT22;16404;49.902;10.074;2023-06-26T07:09:53;32.50;36.70
29431;DHT22;16404;49.902;10.074;2023-06-26T07:12:39;32.60;36.40
29431;DHT22;16404;49.902;10.074;2023-06-26T07:15:23;32.80;36.30
29431;DHT22;16404;49.902;10.074;2023-06-26T07:18:07;33.00;35.40
29431;DHT22;16404;49.902;10.074;2023-06-26T07:20:51;33.10;35.40
29431;DHT22;16404;49.902;10.074;2023-06-26T07:23:36;33.30;34.60
29431;DHT22;16404;49.902;10.074;2023-06-26T07:26:21;33.50;34.80
29431;DHT22;16404;49.902;10.074;2023-06-26T07:29:06;33.60;34.70
29431;DHT22;16404;49.902;10.074;2023-06-26T07:31:51;33.70;33.40
29431;DHT22;16404;49.902;10.074;2023-06-26T07:34:36;33.70;33.10
29431;DHT22;16404;49.902;10.074;2023-06-26T07:37:21;33.70;33.50
29431;DHT22;16404;49.902;10.074;2023-06-26T07:40:05;33.80;33.80
29431;DHT22;16404;49.902;10.074;2023-06-26T07:42:50;34.00;33.50
29431;DHT22;16404;49.902;10.074;2023-06-26T07:45:35;34.10;32.80
29431;DHT22;16404;49.902;10.074;2023-06-26T07:48:19;34.10;32.80
29431;DHT22;16404;49.902;10.074;2023-06-26T07:51:04;34.20;32.30
29431;DHT22;16404;49.902;10.074;2023-06-26T07:53:48;34.40;32.50
29431;DHT22;16404;49.902;10.074;2023-06-26T07:56:56;34.50;32.00
29431;DHT22;16404;49.902;10.074;2023-06-26T07:59:40;34.70;31.70
29431;DHT22;16404;49.902;10.074;2023-06-26T08:02:25;34.70;32.10
29431;DHT22;16404;49.902;10.074;2023-06-26T08:05:09;34.80;32.30
29431;DHT22;16404;49.902;10.074;2023-06-26T08:07:54;35.10;31.60
29431;DHT22;16404;49.902;10.074;2023-06-26T08:10:38;35.00;31.40
29431;DHT22;16404;49.902;10.074;2023-06-26T08:13:23;35.10;31.40
29431;DHT22;16404;49.902;10.074;2023-06-26T08:16:07;35.20;31.90
29431;DHT22;16404;49.902;10.074;2023-06-26T08:18:52;35.30;31.10
29431;DHT22;16404;49.902;10.074;2023-06-26T08:21:36;35.60;31.60
29431;DHT22;16404;49.902;10.074;2023-06-26T08:24:21;35.70;30.30
29431;DHT22;16404;49.902;10.074;2023-06-26T08:27:05;35.80;30.90
29431;DHT22;16404;49.902;10.074;2023-06-26T08:29:51;36.00;31.30
29431;DHT22;16404;49.902;10.074;2023-06-26T08:32:36;36.20;31.10
29431;DHT22;16404;49.902;10.074;2023-06-26T08:35:20;36.40;31.30
29431;DHT22;16404;49.902;10.074;2023-06-26T08:38:05;36.40;30.50
29431;DHT22;16404;49.902;10.074;2023-06-26T08:40:49;36.50;30.00
29431;DHT22;16404;49.902;10.074;2023-06-26T08:43:35;36.70;30.40
29431;DHT22;16404;49.902;10.074;2023-06-26T08:46:19;36.80;30.60
29431;DHT22;16404;49.902;10.074;2023-06-26T08:52:23;37.10;29.10
29431;DHT22;16404;49.902;10.074;2023-06-26T08:55:10;37.20;29.40
29431;DHT22;16404;49.902;10.074;2023-06-26T08:57:55;37.30;29.20
29431;DHT22;16404;49.902;10.074;2023-06-26T09:00:40;37.50;29.20
29431;DHT22;16404;49.902;10.074;2023-06-26T09:03:24;37.70;29.50
29431;DHT22;16404;49.902;10.074;2023-06-26T09:06:10;37.80;28.40
29431;DHT22;16404;49.902;10.074;2023-06-26T09:08:55;37.80;28.30
29431;DHT22;16404;49.902;10.074;2023-06-26T09:11:39;37.90;27.70
29431;DHT22;16404;49.902;10.074;2023-06-26T09:14:24;38.00;28.40
29431;DHT22;16404;49.902;10.074;2023-06-26T09:17:08;38.20;28.70
29431;DHT22;16404;49.902;10.074;2023-06-26T09:19:53;38.40;28.30
29431;DHT22;16404;49.902;10.074;2023-06-26T09:22:37;38.50;27.80
29431;DHT22;16404;49.902;10.074;2023-06-26T09:25:25;38.50;28.20
29431;DHT22;16404;49.902;10.074;2023-06-26T09:28:10;38.50;27.50
29431;DHT22;16404;49.902;10.074;2023-06-26T09:30:54;38.50;26.90
29431;DHT22;16404;49.902;10.074;2023-06-26T09:33:38;38.60;27.50
29431;DHT22;16404;49.902;10.074;2023-06-26T09:36:23;38.70;26.70
29431;DHT22;16404;49.902;10.074;2023-06-26T09:39:08;38.90;27.10
29431;DHT22;16404;49.902;10.074;2023-06-26T09:41:54;39.20;27.40
29431;DHT22;16404;49.902;10.074;2023-06-26T09:44:47;39.20;26.50
29431;DHT22;16404;49.902;10.074;2023-06-26T09:47:34;39.10;26.00
29431;DHT22;16404;49.902;10.074;2023-06-26T09:50:22;39.40;25.80
29431;DHT22;16404;49.902;10.074;2023-06-26T09:53:08;39.40;25.00
29431;DHT22;16404;49.902;10.074;2023-06-26T09:56:08;39.50;24.70
29431;DHT22;16404;49.902;10.074;2023-06-26T09:59:04;39.50;24.70
29431;DHT22;16404;49.902;10.074;2023-06-26T10:01:48;39.50;24.80
29431;DHT22;16404;49.902;10.074;2023-06-26T10:04:42;39.70;25.00
29431;DHT22;16404;49.902;10.074;2023-06-26T10:07:26;39.80;24.60
29431;DHT22;16404;49.902;10.074;2023-06-26T10:10:11;40.00;25.00
29431;DHT22;16404;49.902;10.074;2023-06-26T10:13:00;40.30;24.60
29431;DHT22;16404;49.902;10.074;2023-06-26T10:15:46;40.30;23.90
29431;DHT22;16404;49.902;10.074;2023-06-26T10:18:33;40.40;23.50
29431;DHT22;16404;49.902;10.074;2023-06-26T10:21:20;40.40;23.60
29431;DHT22;16404;49.902;10.074;2023-06-26T10:24:06;40.40;23.30
29431;DHT22;16404;49.902;10.074;2023-06-26T10:27:02;40.40;23.50
29431;DHT22;16404;49.902;10.074;2023-06-26T10:29:59;40.50;23.00
29431;DHT22;16404;49.902;10.074;2023-06-26T10:32:45;40.60;23.20
29431;DHT22;16404;49.902;10.074;2023-06-26T10:35:30;40.60;23.40
29431;DHT22;16404;49.902;10.074;2023-06-26T10:38:15;40.60;23.10
29431;DHT22;16404;49.902;10.074;2023-06-26T10:41:00;40.50;23.40
29431;DHT22;16404;49.902;10.074;2023-06-26T10:44:10;40.50;23.70
29431;DHT22;16404;49.902;10.074;2023-06-26T10:46:55;40.40;22.80
29431;DHT22;16404;49.902;10.074;2023-06-26T10:49:47;40.20;22.50
29431;DHT22;16404;49.902;10.074;2023-06-26T10:52:36;40.10;22.50
29431;DHT22;16404;49.902;10.074;2023-06-26T10:55:27;40.00;23.20
29431;DHT22;16404;49.902;10.074;2023-06-26T11:01:24;40.00;23.10
29431;DHT22;16404;49.902;10.074;2023-06-26T11:04:08;40.00;23.10
29431;DHT22;16404;49.902;10.074;2023-06-26T11:07:14;40.00;22.90
29431;DHT22;16404;49.902;10.074;2023-06-26T11:12:53;40.00;23.50
29431;DHT22;16404;49.902;10.074;2023-06-26T11:15:38;40.00;23.50
29431;DHT22;16404;49.902;10.074;2023-06-26T11:18:24;40.10;23.40
29431;DHT22;16404;49.902;10.074;2023-06-26T11:21:10;40.00;23.70
29431;DHT22;16404;49.902;10.074;2023-06-26T11:23:58;40.00;24.10
29431;DHT22;16404;49.902;10.074;2023-06-26T11:26:45;40.00;24.20
29431;DHT22;16404;49.902;10.074;2023-06-26T11:29:30;40.00;23.80
29431;DHT22;16404;49.902;10.074;2023-06-26T11:32:15;39.90;24.10
29431;DHT22;16404;49.902;10.074;2023-06-26T11:35:00;39.80;24.60
29431;DHT22;16404;49.902;10.074;2023-06-26T11:37:44;39.80;24.50
29431;DHT22;16404;49.902;10.074;2023-06-26T11:40:28;39.80;24.60
29431;DHT22;16404;49.902;10.074;2023-06-26T11:43:15;39.70;24.60
29431;DHT22;16404;49.902;10.074;2023-06-26T11:46:00;39.60;25.10
29431;DHT22;16404;49.902;10.074;2023-06-26T11:48:45;39.40;25.10
29431;DHT22;16404;49.902;10.074;2023-06-26T11:51:30;39.40;25.40
29431;DHT22;16404;49.902;10.074;2023-06-26T11:54:14;39.40;25.80
29431;DHT22;16404;49.902;10.074;2023-06-26T11:56:59;39.30;25.60
29431;DHT22;16404;49.902;10.074;2023-06-26T11:59:44;39.10;25.90
29431;DHT22;16404;49.902;10.074;2023-06-26T12:02:28;39.00;26.20
29431;DHT22;16404;49.902;10.074;2023-06-26T12:05:14;38.90;26.30
29431;DHT22;16404;49.902;10.074;2023-06-26T12:08:00;38.70;26.20
29431;DHT22;16404;49.902;10.074;2023-06-26T12:10:46;38.60;26.40
29431;DHT22;16404;49.902;10.074;2023-06-26T12:13:30;38.50;26.80
29431;DHT22;16404;49.902;10.074;2023-06-26T12:16:14;38.50;26.80
29431;DHT22;16404;49.902;10.074;2023-06-26T12:18:59;38.30;26.60
29431;DHT22;16404;49.902;10.074;2023-06-26T12:21:46;38.20;26.70
29431;DHT22;16404;49.902;10.074;2023-06-26T12:24:30;38.00;26.70
29431;DHT22;16404;49.902;10.074;2023-06-26T12:27:18;37.80;27.00
29431;DHT22;16404;49.902;10.074;2023-06-26T12:30:04;37.70;27.10
29431;DHT22;16404;49.902;10.074;2023-06-26T12:32:49;37.60;27.40
29431;DHT22;16404;49.902;10.074;2023-06-26T12:35:34;37.60;27.70
29431;DHT22;16404;49.902;10.074;2023-06-26T12:38:18;37.60;27.60
29431;DHT22;16404;49.902;10.074;2023-06-26T12:41:04;37.50;27.70
29431;DHT22;16404;49.902;10.074;2023-06-26T12:43:55;37.40;27.60
29431;DHT22;16404;49.902;10.074;2023-06-26T12:46:40;37.20;27.50
29431;DHT22;16404;49.902;10.074;2023-06-26T12:49:36;37.20;27.90
29431;DHT22;16404;49.902;10.074;2023-06-26T12:52:21;37.10;27.80
29431;DHT22;16404;49.902;10.074;2023-06-26T12:55:06;37.00;27.90
29431;DHT22;16404;49.902;10.074;2023-06-26T12:57:50;37.00;28.20
29431;DHT22;16404;49.902;10.074;2023-06-26T13:00:35;36.90;28.20
29431;DHT22;16404;49.902;10.074;2023-06-26T13:03:20;36.90;28.50
29431;DHT22;16404;49.902;10.074;2023-06-26T13:06:07;37.00;28.40
29431;DHT22;16404;49.902;10.074;2023-06-26T13:08:52;37.00;28.90
29431;DHT22;16404;49.902;10.074;2023-06-26T13:11:37;37.00;28.60
29431;DHT22;16404;49.902;10.074;2023-06-26T13:14:21;37.00;28.50
29431;DHT22;16404;49.902;10.074;2023-06-26T13:17:06;37.00;28.40
29431;DHT22;16404;49.902;10.074;2023-06-26T13:19:51;36.90;28.50
29431;DHT22;16404;49.902;10.074;2023-06-26T13:22:35;36.90;28.60
29431;DHT22;16404;49.902;10.074;2023-06-26T13:25:20;36.80;28.90
29431;DHT22;16404;49.902;10.074;2023-06-26T13:28:04;36.70;29.00
29431;DHT22;16404;49.902;10.074;2023-06-26T13:30:49;36.70;29.30
29431;DHT22;16404;49.902;10.074;2023-06-26T13:33:34;36.60;29.90
29431;DHT22;16404;49.902;10.074;2023-06-26T13:36:19;36.60;29.60
29431;DHT22;16404;49.902;10.074;2023-06-26T13:39:03;36.50;29.50
29431;DHT22;16404;49.902;10.074;2023-06-26T13:41:48;36.40;29.70
29431;DHT22;16404;49.902;10.074;2023-06-26T13:44:32;36.40;29.70
29431;DHT22;16404;49.902;10.074;2023-06-26T13:47:16;36.40;29.60
29431;DHT22;16404;49.902;10.074;2023-06-26T13:50:01;36.40;30.00
29431;DHT22;16404;49.902;10.074;2023-06-26T13:52:46;36.20;29.50
29431;DHT22;16404;49.902;10.074;2023-06-26T13:55:30;36.10;29.60
29431;DHT22;16404;49.902;10.074;2023-06-26T13:58:15;36.10;29.60
29431;DHT22;16404;49.902;10.074;2023-06-26T14:00:59;36.10;29.90
29431;DHT22;16404;49.902;10.074;2023-06-26T14:03:44;36.10;30.00
29431;DHT22;16404;49.902;10.074;2023-06-26T14:06:28;36.10;30.00
29431;DHT22;16404;49.902;10.074;2023-06-26T14:09:14;36.10;30.00
29431;DHT22;16404;49.902;10.074;2023-06-26T14:11:58;36.20;29.90
29431;DHT22;16404;49.902;10.074;2023-06-26T14:14:43;36.10;30.60
29431;DHT22;16404;49.902;10.074;2023-06-26T14:17:27;36.10;30.00
29431;DHT22;16404;49.902;10.074;2023-06-26T14:20:12;36.10;30.00
29431;DHT22;16404;49.902;10.074;2023-06-26T14:22:59;36.10;30.20
29431;DHT22;16404;49.902;10.074;2023-06-26T14:25:43;36.00;30.00
29431;DHT22;16404;49.902;10.074;2023-06-26T14:28:28;36.00;30.00
29431;DHT22;16404;49.902;10.074;2023-06-26T14:31:13;36.00;30.00
29431;DHT22;16404;49.902;10.074;2023-06-26T14:33:57;35.90;30.30
29431;DHT22;16404;49.902;10.074;2023-06-26T14:36:43;36.00;30.00
29431;DHT22;16404;49.902;10.074;2023-06-26T14:39:27;36.00;29.90
29431;DHT22;16404;49.902;10.074;2023-06-26T14:42:12;35.80;29.60
29431;DHT22;16404;49.902;10.074;2023-06-26T14:44:56;35.70;29.80
29431;DHT22;16404;49.902;10.074;2023-06-26T14:47:40;35.70;29.80
29431;DHT22;16404;49.902;10.074;2023-06-26T14:50:25;35.70;30.00
29431;DHT22;16404;49.902;10.074;2023-06-26T14:53:09;35.70;30.00
29431;DHT22;16404;49.902;10.074;2023-06-26T14:55:54;35.70;30.20
29431;DHT22;16404;49.902;10.074;2023-06-26T14:58:39;35.70;30.30
29431;DHT22;16404;49.902;10.074;2023-06-26T15:01:23;35.70;30.10
29431;DHT22;16404;49.902;10.074;2023-06-26T15:04:08;35.70;30.10
29431;DHT22;16404;49.902;10.074;2023-06-26T15:06:53;35.70;30.00
29431;DHT22;16404;49.902;10.074;2023-06-26T15:09:37;35.50;30.00
29431;DHT22;16404;49.902;10.074;2023-06-26T15:12:22;35.40;30.00
29431;DHT22;16404;49.902;10.074;2023-06-26T15:15:07;35.30;30.00
29431;DHT22;16404;49.902;10.074;2023-06-26T15:17:52;35.10;30.40
29431;DHT22;16404;49.902;10.074;2023-06-26T15:20:36;35.10;30.60
29431;DHT22;16404;49.902;10.074;2023-06-26T15:23:21;35.10;31.00
29431;DHT22;16404;49.902;10.074;2023-06-26T15:26:06;35.10;31.40
29431;DHT22;16404;49.902;10.074;2023-06-26T15:28:50;35.20;31.20
29431;DHT22;16404;49.902;10.074;2023-06-26T15:31:34;35.10;31.80
29431;DHT22;16404;49.902;10.074;2023-06-26T15:34:19;35.10;31.90
29431;DHT22;16404;49.902;10.074;2023-06-26T15:37:04;35.10;31.90
29431;DHT22;16404;49.902;10.074;2023-06-26T15:39:48;35.00;31.80
29431;DHT22;16404;49.902;10.074;2023-06-26T15:42:32;34.80;32.60
29431;DHT22;16404;49.902;10.074;2023-06-26T15:45:17;34.60;32.00
29431;DHT22;16404;49.902;10.074;2023-06-26T15:48:09;34.50;32.40
29431;DHT22;16404;49.902;10.074;2023-06-26T15:50:54;34.40;32.20
29431;DHT22;16404;49.902;10.074;2023-06-26T15:53:38;34.30;32.30
29431;DHT22;16404;49.902;10.074;2023-06-26T15:56:23;34.20;32.50
29431;DHT22;16404;49.902;10.074;2023-06-26T15:59:08;34.10;32.40
29431;DHT22;16404;49.902;10.074;2023-06-26T16:01:52;34.00;32.80
29431;DHT22;16404;49.902;10.074;2023-06-26T16:04:38;33.90;33.20
29431;DHT22;16404;49.902;10.074;2023-06-26T16:07:23;33.80;33.60
29431;DHT22;16404;49.902;10.074;2023-06-26T16:10:08;33.70;33.40
29431;DHT22;16404;49.902;10.074;2023-06-26T16:12:53;33.60;33.50
29431;DHT22;16404;49.902;10.074;2023-06-26T16:15:37;33.50;33.70
29431;DHT22;16404;49.902;10.074;2023-06-26T16:18:22;33.60;34.00
29431;DHT22;16404;49.902;10.074;2023-06-26T16:21:06;33.50;33.90
29431;DHT22;16404;49.902;10.074;2023-06-26T16:23:51;33.50;33.60
29431;DHT22;16404;49.902;10.074;2023-06-26T16:26:36;33.50;33.80
29431;DHT22;16404;49.902;10.074;2023-06-26T16:29:20;33.40;33.80
29431;DHT22;16404;49.902;10.074;2023-06-26T16:32:07;33.30;34.10
29431;DHT22;16404;49.902;10.074;2023-06-26T16:34:51;33.30;34.10
29431;DHT22;16404;49.902;10.074;2023-06-26T16:37:36;33.20;33.90
29431;DHT22;16404;49.902;10.074;2023-06-26T16:40:20;33.20;33.70
29431;DHT22;16404;49.902;10.074;2023-06-26T16:43:05;33.10;33.40
29431;DHT22;16404;49.902;10.074;2023-06-26T16:45:49;33.00;33.20
29431;DHT22;16404;49.902;10.074;2023-06-26T16:48:34;33.00;33.40
29431;DHT22;16404;49.902;10.074;2023-06-26T16:51:19;32.90;33.50
29431;DHT22;16404;49.902;10.074;2023-06-26T16:54:03;32.80;33.60
29431;DHT22;16404;49.902;10.074;2023-06-26T16:56:48;32.70;33.60
29431;DHT22;16404;49.902;10.074;2023-06-26T16:59:32;32.60;33.40
29431;DHT22;16404;49.902;10.074;2023-06-26T17:02:17;32.50;33.20
29431;DHT22;16404;49.902;10.074;2023-06-26T17:05:02;32.40;33.20
29431;DHT22;16404;49.902;10.074;2023-06-26T17:07:46;32.20;33.10
29431;DHT22;16404;49.902;10.074;2023-06-26T17:10:30;32.10;32.70
29431;DHT22;16404;49.902;10.074;2023-06-26T17:13:15;32.00;32.80
29431;DHT22;16404;49.902;10.074;2023-06-26T17:15:59;31.90;32.80
29431;DHT22;16404;49.902;10.074;2023-06-26T17:18:44;31.90;33.00
29431;DHT22;16404;49.902;10.074;2023-06-26T17:21:29;31.80;33.00